Time;durP1;ratioP1;P1;durP2;ratioP2;P2;SDS_P1;SDS_P2;PMS_P1;PMS_P2;Temp;Humidity;BMP_temperature;BMP_pressure;BME280_temperature;BME280_humidity;BME280_pressure;Samples;Min_cycle;Max_cycle;Signal;HPM_P1;HPM_P2
2022/04/14 00:02:09;;;;;;;10.27;8.05;;;;;;;;;;5066592;28;20044;-66
2022/04/14 00:04:36;;;;;;;11.45;8.90;;;;;;;;;;5067973;28;20039;-66
2022/04/14 00:07:03;;;;;;;14.18;8.85;;;;;;;;;;5068297;28;20059;-66
2022/04/14 00:09:29;;;;;;;14.20;8.93;;;;;;;;;;5063350;28;20453;-66
2022/04/14 00:11:55;;;;;;;13.10;9.20;;;;;;;;;;5062855;28;20439;-66
2022/04/14 00:14:21;;;;;;;15.43;9.63;;;;;;;;;;5067254;28;20051;-66
2022/04/14 00:16:48;;;;;;;12.93;9.57;;;;;;;;;;5065538;28;20576;-66
2022/04/14 00:19:14;;;;;;;14.27;9.50;;;;;;;;;;5064750;28;20110;-66
2022/04/14 00:21:40;;;;;;;15.02;10.13;;;;;;;;;;5064896;28;20115;-66
2022/04/14 00:24:06;;;;;;;13.77;9.35;;;;;;;;;;5062778;28;20431;-66
2022/04/14 00:26:32;;;;;;;12.32;9.55;;;;;;;;;;5069952;28;20044;-66
2022/04/14 00:28:58;;;;;;;13.85;10.52;;;;;;;;;;5052275;28;20539;-66
2022/04/14 00:31:24;;;;;;;16.05;11.32;;;;;;;;;;5065835;28;20240;-66
2022/04/14 00:33:50;;;;;;;15.85;11.00;;;;;;;;;;5068626;28;20052;-66
2022/04/14 00:36:16;;;;;;;19.25;11.57;;;;;;;;;;5068119;28;20045;-66
2022/04/14 00:38:42;;;;;;;18.10;12.02;;;;;;;;;;5068626;28;20132;-66
2022/04/14 00:41:08;;;;;;;16.30;12.05;;;;;;;;;;5066986;28;20052;-66
2022/04/14 00:43:35;;;;;;;20.75;12.70;;;;;;;;;;5067082;28;20040;-66
2022/04/14 00:46:02;;;;;;;18.60;12.43;;;;;;;;;;5067054;28;20473;-65
2022/04/14 00:48:29;;;;;;;17.05;12.57;;;;;;;;;;5084129;28;20064;-66
2022/04/14 00:50:55;;;;;;;18.65;13.80;;;;;;;;;;5062603;28;20057;-65
2022/04/14 00:53:22;;;;;;;18.25;13.93;;;;;;;;;;5069394;28;20419;-65
2022/04/14 00:55:49;;;;;;;16.67;13.57;;;;;;;;;;5067550;28;20393;-66
2022/04/14 00:58:15;;;;;;;18.60;13.88;;;;;;;;;;5065550;28;20052;-66
2022/04/14 01:00:42;;;;;;;25.05;14.98;;;;;;;;;;5067622;28;20037;-66
2022/04/14 01:03:08;;;;;;;21.25;15.27;;;;;;;;;;5068650;28;20469;-65
2022/04/14 01:05:35;;;;;;;26.40;14.80;;;;;;;;;;5069460;28;20366;-66
2022/04/14 01:08:01;;;;;;;23.88;15.80;;;;;;;;;;5070933;28;20127;-66
2022/04/14 01:10:28;;;;;;;20.17;14.35;;;;;;;;;;5070735;28;20373;-65
2022/04/14 01:12:54;;;;;;;21.23;14.93;;;;;;;;;;5070135;28;20043;-65
2022/04/14 01:15:20;;;;;;;22.73;15.02;;;;;;;;;;5069960;28;20044;-65
2022/04/14 01:17:47;;;;;;;20.67;14.68;;;;;;;;;;5069131;28;20049;-65
2022/04/14 01:20:13;;;;;;;21.25;14.77;;;;;;;;;;5068240;28;20847;-66
2022/04/14 01:22:56;;;;;;;22.15;15.63;;;;;;;;;;5068136;28;20040;-65
2022/04/14 01:25:23;;;;;;;20.25;14.77;;;;;;;;;;5065050;28;20049;-66
2022/04/14 01:27:50;;;;;;;20.98;15.35;;;;;;;;;;5069057;28;20028;-65
2022/04/14 01:30:16;;;;;;;21.92;16.10;;;;;;;;;;5067332;28;20586;-65
2022/04/14 01:32:42;;;;;;;22.17;15.00;;;;;;;;;;5064730;28;20508;-65
2022/04/14 01:35:08;;;;;;;22.38;14.98;;;;;;;;;;5063192;28;20485;-65
2022/04/14 01:37:34;;;;;;;22.13;15.38;;;;;;;;;;5063194;28;20095;-66
2022/04/14 01:40:00;;;;;;;20.77;15.52;;;;;;;;;;5067553;28;20047;-65
2022/04/14 01:42:26;;;;;;;23.98;15.77;;;;;;;;;;5068552;28;20515;-65
2022/04/14 01:44:52;;;;;;;22.10;14.82;;;;;;;;;;5065149;28;20178;-66
2022/04/14 01:47:18;;;;;;;24.90;16.30;;;;;;;;;;5066330;28;20037;-66
2022/04/14 01:49:45;;;;;;;20.52;15.40;;;;;;;;;;5068037;28;20041;-66
2022/04/14 01:52:11;;;;;;;25.17;15.23;;;;;;;;;;5069048;28;20033;-66
2022/04/14 01:54:37;;;;;;;22.35;15.27;;;;;;;;;;5066151;28;20048;-66
2022/04/14 01:57:03;;;;;;;19.98;15.25;;;;;;;;;;5063558;28;20048;-65
2022/04/14 01:59:29;;;;;;;22.95;15.70;;;;;;;;;;5067985;28;20047;-65
2022/04/14 02:01:55;;;;;;;23.98;14.73;;;;;;;;;;5065099;28;20043;-66
2022/04/14 02:04:21;;;;;;;22.08;16.00;;;;;;;;;;5066569;28;20053;-65
2022/04/14 02:06:47;;;;;;;22.08;14.95;;;;;;;;;;5066695;28;20064;-65
2022/04/14 02:09:13;;;;;;;22.77;15.15;;;;;;;;;;5067864;28;20060;-65
2022/04/14 02:11:39;;;;;;;23.08;14.95;;;;;;;;;;5065102;28;20040;-65
2022/04/14 02:14:05;;;;;;;25.98;16.08;;;;;;;;;;5065189;28;20086;-65
2022/04/14 02:16:31;;;;;;;23.33;15.10;;;;;;;;;;5067449;28;20045;-66
2022/04/14 02:18:57;;;;;;;23.70;15.00;;;;;;;;;;5066542;28;20059;-65
2022/04/14 02:21:23;;;;;;;21.25;15.52;;;;;;;;;;5068022;28;20051;-65
2022/04/14 02:23:49;;;;;;;19.98;15.82;;;;;;;;;;5068857;28;20032;-65
2022/04/14 02:26:16;;;;;;;22.77;14.35;;;;;;;;;;5067565;28;20140;-66
2022/04/14 02:28:42;;;;;;;23.52;15.50;;;;;;;;;;5066672;28;20040;-66
2022/04/14 02:31:08;;;;;;;24.00;15.63;;;;;;;;;;5068266;28;20481;-66
2022/04/14 02:33:34;;;;;;;23.40;16.35;;;;;;;;;;5068944;28;20356;-65
2022/04/14 02:36:00;;;;;;;22.20;15.80;;;;;;;;;;5068497;28;20610;-66
2022/04/14 02:38:26;;;;;;;19.30;15.13;;;;;;;;;;5067861;28;20044;-66
2022/04/14 02:40:52;;;;;;;21.35;15.27;;;;;;;;;;5068645;28;20063;-66
2022/04/14 02:43:18;;;;;;;24.05;15.48;;;;;;;;;;5062646;28;20233;-66
2022/04/14 02:45:44;;;;;;;25.55;15.50;;;;;;;;;;5065865;28;20040;-66
2022/04/14 02:48:10;;;;;;;22.45;14.93;;;;;;;;;;5063646;28;20059;-66
2022/04/14 02:50:38;;;;;;;26.17;15.10;;;;;;;;;;5066493;28;20045;-66
2022/04/14 02:53:04;;;;;;;20.23;15.50;;;;;;;;;;5065132;28;20041;-65
2022/04/14 02:55:30;;;;;;;21.00;15.55;;;;;;;;;;5065962;28;20036;-65
2022/04/14 02:57:56;;;;;;;22.58;14.90;;;;;;;;;;5067421;28;20040;-65
2022/04/14 03:00:22;;;;;;;18.02;13.63;;;;;;;;;;5065626;28;20100;-65
2022/04/14 03:02:48;;;;;;;24.20;15.45;;;;;;;;;;5065644;28;20040;-65
2022/04/14 03:05:14;;;;;;;22.67;14.73;;;;;;;;;;5064364;28;20036;-65
2022/04/14 03:07:41;;;;;;;20.60;14.55;;;;;;;;;;5066579;28;20032;-65
2022/04/14 03:10:07;;;;;;;21.17;15.13;;;;;;;;;;5063877;28;20044;-65
2022/04/14 03:12:43;;;;;;;23.08;16.20;;;;;;;;;;5068098;28;20122;-65
2022/04/14 03:15:09;;;;;;;20.45;15.30;;;;;;;;;;5081028;28;20087;-65
2022/04/14 03:17:35;;;;;;;25.60;15.82;;;;;;;;;;5066883;28;20047;-66
2022/04/14 03:20:02;;;;;;;25.45;17.58;;;;;;;;;;5067923;28;20036;-65
2022/04/14 03:22:32;;;;;;;23.83;16.40;;;;;;;;;;5068513;28;20032;-66
2022/04/14 03:24:58;;;;;;;24.33;16.40;;;;;;;;;;5067796;28;20084;-66
2022/04/14 03:27:24;;;;;;;21.67;15.75;;;;;;;;;;5066041;28;20040;-66
2022/04/14 03:29:50;;;;;;;22.92;15.55;;;;;;;;;;5068465;28;20035;-66
2022/04/14 03:32:16;;;;;;;25.75;17.25;;;;;;;;;;5066694;28;20032;-65
2022/04/14 03:34:42;;;;;;;24.30;15.07;;;;;;;;;;5065104;28;20412;-65
2022/04/14 03:37:08;;;;;;;24.00;16.13;;;;;;;;;;5065777;28;20127;-65
2022/04/14 03:39:34;;;;;;;25.30;17.35;;;;;;;;;;5067918;28;20079;-65
2022/04/14 03:42:00;;;;;;;23.77;17.00;;;;;;;;;;5068054;28;20075;-66
2022/04/14 03:44:26;;;;;;;26.45;17.67;;;;;;;;;;5068803;28;20044;-65
2022/04/14 03:46:52;;;;;;;26.10;17.92;;;;;;;;;;5066920;28;20047;-65
2022/04/14 03:49:18;;;;;;;23.02;17.77;;;;;;;;;;5068225;28;20052;-65
2022/04/14 03:51:44;;;;;;;23.17;16.90;;;;;;;;;;5064593;28;20044;-65
2022/04/14 03:54:10;;;;;;;23.42;16.25;;;;;;;;;;5066093;28;20037;-65
2022/04/14 03:56:36;;;;;;;23.13;17.33;;;;;;;;;;5066720;28;20080;-65
2022/04/14 03:59:02;;;;;;;21.77;17.00;;;;;;;;;;5065904;28;20055;-65
2022/04/14 04:01:28;;;;;;;26.30;17.25;;;;;;;;;;5068419;28;20101;-65
2022/04/14 04:03:54;;;;;;;22.67;16.00;;;;;;;;;;5065528;28;20044;-65
2022/04/14 04:06:21;;;;;;;21.80;15.57;;;;;;;;;;5063475;28;20047;-65
2022/04/14 04:08:47;;;;;;;21.40;16.30;;;;;;;;;;5064055;28;20037;-65
2022/04/14 04:11:13;;;;;;;24.40;17.17;;;;;;;;;;5063183;28;20037;-65
2022/04/14 04:13:39;;;;;;;28.38;18.98;;;;;;;;;;5062733;28;20052;-65
2022/04/14 04:16:05;;;;;;;26.27;17.38;;;;;;;;;;5062869;28;20093;-65
2022/04/14 04:18:33;;;;;;;24.98;17.75;;;;;;;;;;5062263;28;20040;-65
2022/04/14 04:20:59;;;;;;;23.90;16.42;;;;;;;;;;5062426;28;20131;-65
2022/04/14 04:23:25;;;;;;;29.42;18.35;;;;;;;;;;5063947;28;20115;-65
2022/04/14 04:25:51;;;;;;;26.55;19.23;;;;;;;;;;5060644;28;20047;-65
2022/04/14 04:28:17;;;;;;;28.88;19.38;;;;;;;;;;5064666;28;20700;-65
2022/04/14 04:30:43;;;;;;;26.33;18.48;;;;;;;;;;5063271;28;20488;-66
2022/04/14 04:33:09;;;;;;;24.27;18.05;;;;;;;;;;5062942;28;20033;-65
2022/04/14 04:35:35;;;;;;;28.17;18.00;;;;;;;;;;5064210;28;20040;-66
2022/04/14 04:38:01;;;;;;;30.42;18.23;;;;;;;;;;5064925;28;20119;-66
2022/04/14 04:40:27;;;;;;;21.88;15.95;;;;;;;;;;5063307;28;20045;-66
2022/04/14 04:42:53;;;;;;;24.58;17.10;;;;;;;;;;5067706;28;20060;-66
2022/04/14 04:45:20;;;;;;;22.77;17.35;;;;;;;;;;5065324;28;20044;-66
2022/04/14 04:47:46;;;;;;;24.75;17.42;;;;;;;;;;5065510;28;20123;-66
2022/04/14 04:50:12;;;;;;;29.02;18.83;;;;;;;;;;5066080;28;20052;-66
2022/04/14 04:52:38;;;;;;;25.20;16.98;;;;;;;;;;5063090;28;20063;-65
2022/04/14 04:55:05;;;;;;;26.77;17.90;;;;;;;;;;5066222;28;20123;-65
2022/04/14 04:57:31;;;;;;;21.45;15.95;;;;;;;;;;5066497;28;20473;-65
2022/04/14 04:59:57;;;;;;;23.52;17.40;;;;;;;;;;5065344;28;21069;-65
2022/04/14 05:02:23;;;;;;;24.30;17.75;;;;;;;;;;5062879;28;20067;-65
2022/04/14 05:04:49;;;;;;;21.73;15.32;;;;;;;;;;5062691;28;20111;-65
2022/04/14 05:07:15;;;;;;;25.83;17.88;;;;;;;;;;5062040;28;20045;-65
2022/04/14 05:09:41;;;;;;;24.98;17.50;;;;;;;;;;5063633;28;20486;-66
2022/04/14 05:12:07;;;;;;;25.33;17.63;;;;;;;;;;5065393;28;20119;-65
2022/04/14 05:14:33;;;;;;;21.50;15.35;;;;;;;;;;5068817;28;20442;-65
2022/04/14 05:16:59;;;;;;;21.38;16.25;;;;;;;;;;5066063;28;20469;-66
2022/04/14 05:19:25;;;;;;;23.50;15.93;;;;;;;;;;5068725;28;20093;-66
2022/04/14 05:21:51;;;;;;;25.83;18.13;;;;;;;;;;5068332;28;20036;-66
2022/04/14 05:24:17;;;;;;;24.95;17.85;;;;;;;;;;5068656;28;20043;-66
2022/04/14 05:26:44;;;;;;;24.25;18.00;;;;;;;;;;5067412;28;20059;-66
2022/04/14 05:29:10;;;;;;;26.73;17.25;;;;;;;;;;5069751;28;20206;-66
2022/04/14 05:31:36;;;;;;;26.63;18.83;;;;;;;;;;5065847;28;20059;-66
2022/04/14 05:34:02;;;;;;;25.83;20.00;;;;;;;;;;5067449;28;20500;-66
2022/04/14 05:36:28;;;;;;;29.85;21.17;;;;;;;;;;5066878;28;20136;-65
2022/04/14 05:38:54;;;;;;;29.67;21.65;;;;;;;;;;5070940;28;20040;-65
2022/04/14 05:41:20;;;;;;;28.75;21.92;;;;;;;;;;5065033;28;20106;-65
2022/04/14 05:43:47;;;;;;;32.75;23.15;;;;;;;;;;5064244;28;20049;-65
2022/04/14 05:46:13;;;;;;;32.78;22.88;;;;;;;;;;5062320;28;20474;-66
2022/04/14 05:48:40;;;;;;;31.95;22.00;;;;;;;;;;5068897;28;20083;-65
2022/04/14 05:51:06;;;;;;;32.55;23.50;;;;;;;;;;5066798;28;20120;-66
2022/04/14 05:53:32;;;;;;;35.75;24.50;;;;;;;;;;5065468;28;20631;-65
2022/04/14 05:55:58;;;;;;;35.60;25.15;;;;;;;;;;5067362;28;20044;-65
2022/04/14 05:58:24;;;;;;;32.95;22.83;;;;;;;;;;5068922;28;20046;-65
2022/04/14 06:00:50;;;;;;;39.50;27.45;;;;;;;;;;5064400;28;20120;-65
2022/04/14 06:03:16;;;;;;;40.13;28.38;;;;;;;;;;5062393;28;20045;-66
2022/04/14 06:05:42;;;;;;;44.83;30.38;;;;;;;;;;5060720;28;20032;-65
2022/04/14 06:08:08;;;;;;;55.20;33.97;;;;;;;;;;5070099;28;20040;-65
2022/04/14 06:10:35;;;;;;;54.50;34.45;;;;;;;;;;5064514;28;20043;-65
2022/04/14 06:13:01;;;;;;;55.17;35.35;;;;;;;;;;5065063;28;20119;-66
2022/04/14 06:15:29;;;;;;;51.25;32.13;;;;;;;;;;5066112;28;20701;-66
2022/04/14 06:17:55;;;;;;;55.47;34.85;;;;;;;;;;5068310;28;20041;-65
2022/04/14 06:20:21;;;;;;;59.45;35.72;;;;;;;;;;5067061;28;20036;-65
2022/04/14 06:22:47;;;;;;;53.30;35.03;;;;;;;;;;5066462;28;20513;-65
2022/04/14 06:25:16;;;;;;;53.42;34.42;;;;;;;;;;5064551;28;20048;-65
2022/04/14 06:27:45;;;;;;;54.72;34.92;;;;;;;;;;5065980;28;20434;-66
2022/04/14 06:30:13;;;;;;;52.17;36.40;;;;;;;;;;5062255;28;20060;-66
2022/04/14 06:32:39;;;;;;;57.38;37.63;;;;;;;;;;5050070;28;20033;-66
2022/04/14 06:35:08;;;;;;;54.78;36.00;;;;;;;;;;5065556;28;20033;-66
2022/04/14 06:37:35;;;;;;;59.85;38.67;;;;;;;;;;5062470;28;20103;-66
2022/04/14 06:40:02;;;;;;;57.95;37.60;;;;;;;;;;5070543;28;20048;-66
2022/04/14 06:42:28;;;;;;;62.78;38.40;;;;;;;;;;5064889;28;20041;-66
2022/04/14 06:44:58;;;;;;;54.13;35.10;;;;;;;;;;5061266;28;20064;-65
2022/04/14 06:47:24;;;;;;;58.60;34.75;;;;;;;;;;5067284;28;20064;-66
2022/04/14 06:49:50;;;;;;;52.55;34.10;;;;;;;;;;5069451;28;20123;-66
2022/04/14 06:52:17;;;;;;;46.88;32.60;;;;;;;;;;5064991;28;21370;-66
2022/04/14 06:54:43;;;;;;;52.13;34.03;;;;;;;;;;5068416;28;20477;-66
2022/04/14 06:57:09;;;;;;;51.55;34.63;;;;;;;;;;5066183;28;20048;-65
2022/04/14 06:59:36;;;;;;;46.95;32.13;;;;;;;;;;5066617;28;20151;-66
2022/04/14 07:02:02;;;;;;;49.17;30.92;;;;;;;;;;5067122;28;20432;-66
2022/04/14 07:04:28;;;;;;;47.72;30.58;;;;;;;;;;5068623;28;20040;-66
2022/04/14 07:06:54;;;;;;;47.75;31.48;;;;;;;;;;5065817;28;20036;-65
2022/04/14 07:09:20;;;;;;;40.67;28.92;;;;;;;;;;5062558;28;20041;-66
2022/04/14 07:11:47;;;;;;;43.42;28.23;;;;;;;;;;5063176;28;20051;-65
2022/04/14 07:14:14;;;;;;;42.97;28.55;;;;;;;;;;5041750;28;20086;-66
2022/04/14 07:16:41;;;;;;;44.35;28.95;;;;;;;;;;5067993;28;20052;-65
2022/04/14 07:19:07;;;;;;;41.25;28.20;;;;;;;;;;5067493;28;20110;-65
2022/04/14 07:21:33;;;;;;;42.72;28.63;;;;;;;;;;5064445;28;20036;-66
2022/04/14 07:23:59;;;;;;;43.42;29.30;;;;;;;;;;5065586;28;20036;-66
2022/04/14 07:26:25;;;;;;;46.30;30.70;;;;;;;;;;5067501;28;20047;-66
2022/04/14 07:28:51;;;;;;;43.95;29.50;;;;;;;;;;5067634;28;20048;-65
2022/04/14 07:31:17;;;;;;;41.72;28.13;;;;;;;;;;5067015;28;20086;-65
2022/04/14 07:33:43;;;;;;;48.03;29.90;;;;;;;;;;5062586;28;20427;-66
2022/04/14 07:36:09;;;;;;;54.97;34.47;;;;;;;;;;5067367;28;20145;-65
2022/04/14 07:38:35;;;;;;;45.20;30.67;;;;;;;;;;5067220;28;20082;-66
2022/04/14 07:41:05;;;;;;;45.95;31.15;;;;;;;;;;5067418;28;20046;-66
2022/04/14 07:43:31;;;;;;;42.97;28.63;;;;;;;;;;5064144;28;20123;-66
2022/04/14 07:45:57;;;;;;;36.13;24.65;;;;;;;;;;5063958;28;20048;-66
2022/04/14 07:48:24;;;;;;;37.80;24.63;;;;;;;;;;5064347;28;20055;-66
2022/04/14 07:50:50;;;;;;;30.67;21.95;;;;;;;;;;5066326;28;20036;-66
2022/04/14 07:53:16;;;;;;;33.47;20.38;;;;;;;;;;5063184;28;20052;-66
2022/04/14 07:55:42;;;;;;;28.30;20.25;;;;;;;;;;5062332;28;20128;-66
2022/04/14 07:58:09;;;;;;;29.73;21.75;;;;;;;;;;5059771;28;20619;-66
2022/04/14 08:00:36;;;;;;;34.00;20.30;;;;;;;;;;5054336;28;20068;-66
2022/04/14 08:03:02;;;;;;;30.65;20.10;;;;;;;;;;5054656;28;20056;-66
2022/04/14 08:05:29;;;;;;;22.73;15.75;;;;;;;;;;5056196;28;20041;-66
2022/04/14 08:07:55;;;;;;;23.42;15.80;;;;;;;;;;5062053;28;20095;-69
2022/04/14 08:10:22;;;;;;;27.42;17.00;;;;;;;;;;5061740;28;20515;-70
2022/04/14 08:12:48;;;;;;;25.08;16.90;;;;;;;;;;5062234;28;20053;-69
2022/04/14 08:15:14;;;;;;;24.55;15.48;;;;;;;;;;5058908;28;20423;-69
2022/04/14 08:17:44;;;;;;;20.13;13.90;;;;;;;;;;5064820;28;20437;-70
2022/04/14 08:20:10;;;;;;;23.55;14.95;;;;;;;;;;5059373;28;20039;-70
2022/04/14 08:22:50;;;;;;;22.83;13.80;;;;;;;;;;5061293;28;20107;-71
2022/04/14 08:25:18;;;;;;;16.08;10.73;;;;;;;;;;5056020;28;20184;-70
2022/04/14 08:27:44;;;;;;;13.80;9.32;;;;;;;;;;5051446;28;20051;-70
2022/04/14 08:30:10;;;;;;;15.48;9.13;;;;;;;;;;5055321;28;20052;-69
2022/04/14 08:32:36;;;;;;;11.60;8.18;;;;;;;;;;5062325;28;20032;-69
2022/04/14 08:35:03;;;;;;;9.98;6.95;;;;;;;;;;5058829;28;20045;-69
2022/04/14 08:37:29;;;;;;;12.88;7.00;;;;;;;;;;5057613;28;20037;-68
2022/04/14 08:39:56;;;;;;;10.18;6.68;;;;;;;;;;5060988;28;20100;-69
2022/04/14 08:42:25;;;;;;;9.75;6.80;;;;;;;;;;5059029;28;20053;-69
2022/04/14 08:44:57;;;;;;;12.05;7.68;;;;;;;;;;5058818;28;20147;-69
2022/04/14 08:47:25;;;;;;;13.07;8.50;;;;;;;;;;5084652;28;20135;-68
2022/04/14 08:49:54;;;;;;;17.50;10.48;;;;;;;;;;5067844;28;20448;-69
2022/04/14 08:52:21;;;;;;;20.08;12.30;;;;;;;;;;5059206;28;20111;-69
2022/04/14 08:54:49;;;;;;;20.95;13.18;;;;;;;;;;5065184;28;20497;-69
2022/04/14 08:57:15;;;;;;;20.38;13.10;;;;;;;;;;5063063;28;20040;-69
2022/04/14 08:59:46;;;;;;;18.85;11.95;;;;;;;;;;5064248;28;20049;-69
2022/04/14 09:02:17;;;;;;;19.98;12.43;;;;;;;;;;5048429;28;20070;-69
2022/04/14 09:04:43;;;;;;;15.32;11.02;;;;;;;;;;5065817;28;20469;-69
2022/04/14 09:07:10;;;;;;;14.48;9.10;;;;;;;;;;5063184;28;20049;-69
2022/04/14 09:09:36;;;;;;;11.05;7.32;;;;;;;;;;5064989;28;20041;-69
2022/04/14 09:12:03;;;;;;;8.60;6.70;;;;;;;;;;5063850;28;20488;-68
2022/04/14 09:14:31;;;;;;;9.70;7.13;;;;;;;;;;5051833;28;20119;-69
2022/04/14 09:16:57;;;;;;;8.45;7.28;;;;;;;;;;5080503;28;20140;-69
2022/04/14 09:19:25;;;;;;;8.32;7.03;;;;;;;;;;5061676;28;20049;-69
2022/04/14 09:21:58;;;;;;;11.00;8.65;;;;;;;;;;5038900;28;21268;-68
2022/04/14 09:24:43;;;;;;;11.45;9.45;;;;;;;;;;5061074;28;20048;-68
2022/04/14 09:27:10;;;;;;;14.02;10.68;;;;;;;;;;5063810;28;20405;-68
2022/04/14 09:29:47;;;;;;;13.02;10.95;;;;;;;;;;5062098;28;20051;-68
2022/04/14 09:32:26;;;;;;;12.13;9.73;;;;;;;;;;5060132;28;20060;-68
2022/04/14 09:34:52;;;;;;;15.15;11.48;;;;;;;;;;5058866;28;22074;-69
2022/04/14 09:37:20;;;;;;;14.57;10.82;;;;;;;;;;5065173;28;20058;-68
2022/04/14 09:40:08;;;;;;;11.25;9.00;;;;;;;;;;5056574;28;20053;-68
2022/04/14 09:42:35;;;;;;;12.68;9.57;;;;;;;;;;5062811;28;20068;-68
2022/04/14 09:45:37;;;;;;;13.27;10.40;;;;;;;;;;5063977;28;20028;-68
2022/04/14 09:48:03;;;;;;;14.57;10.20;;;;;;;;;;4973930;28;20160;-69
2022/04/14 09:50:39;;;;;;;14.05;12.35;;;;;;;;;;5047117;28;20111;-69
2022/04/14 09:53:06;;;;;;;13.13;10.95;;;;;;;;;;5061881;28;20048;-68
2022/04/14 09:55:33;;;;;;;13.82;11.70;;;;;;;;;;5059005;28;20044;-68
2022/04/14 09:58:09;;;;;;;14.27;11.40;;;;;;;;;;5062301;28;20056;-68
2022/04/14 10:00:45;;;;;;;13.45;11.73;;;;;;;;;;5060636;28;20032;-68
2022/04/14 10:03:14;;;;;;;14.15;11.73;;;;;;;;;;5059497;28;20397;-68
2022/04/14 10:05:41;;;;;;;15.30;12.40;;;;;;;;;;5065306;28;20082;-68
2022/04/14 10:08:08;;;;;;;13.57;11.57;;;;;;;;;;5064261;28;20109;-68
2022/04/14 10:10:35;;;;;;;13.63;11.57;;;;;;;;;;5062574;28;20037;-69
2022/04/14 10:13:09;;;;;;;13.93;10.80;;;;;;;;;;5066108;28;20048;-68
2022/04/14 10:15:36;;;;;;;14.00;10.65;;;;;;;;;;5065947;28;20081;-68
2022/04/14 10:18:07;;;;;;;13.75;9.80;;;;;;;;;;5061407;28;20040;-68
2022/04/14 10:20:34;;;;;;;14.82;10.48;;;;;;;;;;5065362;28;20044;-68
2022/04/14 10:23:00;;;;;;;13.43;10.55;;;;;;;;;;5065605;28;20033;-69
2022/04/14 10:25:28;;;;;;;14.23;9.82;;;;;;;;;;5057038;28;20131;-69
2022/04/14 10:27:56;;;;;;;12.85;9.85;;;;;;;;;;5058692;28;20037;-69
2022/04/14 10:30:23;;;;;;;14.30;9.88;;;;;;;;;;5060747;28;20032;-68
2022/04/14 10:32:49;;;;;;;11.70;9.30;;;;;;;;;;5076622;28;20044;-69
2022/04/14 10:35:16;;;;;;;11.85;9.05;;;;;;;;;;5060136;28;20086;-69
2022/04/14 10:37:44;;;;;;;14.23;9.57;;;;;;;;;;5054335;28;20049;-69
2022/04/14 10:40:11;;;;;;;11.73;7.97;;;;;;;;;;5059526;28;20432;-69
2022/04/14 10:42:37;;;;;;;9.73;6.78;;;;;;;;;;5058050;28;20443;-69
2022/04/14 10:45:17;;;;;;;10.82;7.35;;;;;;;;;;5055093;28;20084;-69
2022/04/14 10:47:43;;;;;;;10.27;6.90;;;;;;;;;;5062770;28;20039;-68
2022/04/14 10:50:39;;;;;;;12.73;8.18;;;;;;;;;;5057129;28;20424;-69
2022/04/14 10:53:05;;;;;;;10.27;6.80;;;;;;;;;;5043934;28;20073;-69
2022/04/14 10:55:45;;;;;;;7.75;5.72;;;;;;;;;;5044674;28;20046;-69
2022/04/14 10:58:29;;;;;;;7.43;5.75;;;;;;;;;;5061156;28;20477;-69
2022/04/14 11:00:56;;;;;;;8.73;6.05;;;;;;;;;;5062611;28;20044;-69
2022/04/14 11:03:42;;;;;;;8.32;5.55;;;;;;;;;;5059922;28;20044;-69
2022/04/14 11:06:08;;;;;;;8.55;4.00;;;;;;;;;;5057184;28;20114;-69
2022/04/14 11:08:46;;;;;;;6.95;4.78;;;;;;;;;;5058292;28;20447;-69
2022/04/14 11:11:13;;;;;;;7.40;5.35;;;;;;;;;;5041985;28;20056;-68
2022/04/14 11:13:52;;;;;;;11.05;5.40;;;;;;;;;;5061835;28;20377;-69
2022/04/14 11:16:37;;;;;;;8.95;5.07;;;;;;;;;;5061440;28;20139;-69
2022/04/14 11:19:24;;;;;;;6.78;3.72;;;;;;;;;;5059262;28;20097;-70
2022/04/14 11:21:56;;;;;;;7.10;4.40;;;;;;;;;;5044541;28;20048;-69
2022/04/14 11:24:33;;;;;;;6.18;3.65;;;;;;;;;;5061355;28;20068;-69
2022/04/14 11:27:18;;;;;;;8.43;4.50;;;;;;;;;;5057050;28;20488;-70
2022/04/14 11:29:48;;;;;;;7.25;4.43;;;;;;;;;;5057396;28;20131;-69
2022/04/14 11:32:16;;;;;;;5.85;3.60;;;;;;;;;;5053815;28;20048;-69
2022/04/14 11:34:42;;;;;;;7.72;4.95;;;;;;;;;;5062675;28;20385;-70
2022/04/14 11:37:35;;;;;;;7.57;4.05;;;;;;;;;;5053954;28;20071;-69
2022/04/14 11:40:17;;;;;;;6.82;4.70;;;;;;;;;;5053043;28;20036;-70
2022/04/14 11:42:47;;;;;;;5.90;3.85;;;;;;;;;;5077896;28;20102;-70
2022/04/14 11:45:13;;;;;;;6.50;4.70;;;;;;;;;;5052010;28;20109;-69
2022/04/14 11:47:39;;;;;;;8.75;4.38;;;;;;;;;;5059172;28;20575;-70
2022/04/14 11:50:06;;;;;;;9.95;4.32;;;;;;;;;;5060121;28;20067;-69
2022/04/14 11:52:33;;;;;;;10.85;5.10;;;;;;;;;;5045196;28;20105;-69
2022/04/14 11:55:00;;;;;;;8.98;4.70;;;;;;;;;;5059302;28;20471;-70
2022/04/14 11:57:29;;;;;;;7.53;4.40;;;;;;;;;;5062304;28;20516;-69
2022/04/14 12:00:09;;;;;;;9.25;5.78;;;;;;;;;;5064239;28;20045;-69
2022/04/14 12:02:35;;;;;;;11.23;5.75;;;;;;;;;;5057703;28;20146;-69
2022/04/14 12:05:01;;;;;;;7.88;5.18;;;;;;;;;;5058878;28;20174;-70
2022/04/14 12:07:32;;;;;;;11.30;6.13;;;;;;;;;;5060572;28;20535;-69
2022/04/14 12:10:03;;;;;;;9.18;5.95;;;;;;;;;;5060293;28;20447;-69
2022/04/14 12:12:33;;;;;;;8.65;5.85;;;;;;;;;;5063369;28;20040;-69
2022/04/14 12:14:59;;;;;;;9.55;5.40;;;;;;;;;;5062092;28;20135;-69
2022/04/14 12:17:26;;;;;;;9.95;5.28;;;;;;;;;;5057372;28;20040;-69
2022/04/14 12:20:00;;;;;;;9.60;6.40;;;;;;;;;;5061590;28;20048;-68
2022/04/14 12:22:34;;;;;;;7.60;5.40;;;;;;;;;;5066121;28;20040;-69
2022/04/14 12:25:01;;;;;;;9.65;5.50;;;;;;;;;;5064464;28;20045;-69
2022/04/14 12:27:34;;;;;;;13.15;5.07;;;;;;;;;;5066425;28;20048;-69
2022/04/14 12:30:13;;;;;;;8.20;4.28;;;;;;;;;;5083688;28;20089;-69
2022/04/14 12:32:39;;;;;;;5.55;4.25;;;;;;;;;;5084543;28;20037;-69
2022/04/14 12:35:08;;;;;;;8.27;5.00;;;;;;;;;;5066094;28;20571;-69
2022/04/14 12:37:38;;;;;;;7.47;4.70;;;;;;;;;;5068313;28;20040;-69
2022/04/14 12:40:13;;;;;;;7.53;4.38;;;;;;;;;;5064927;28;20049;-69
2022/04/14 12:42:39;;;;;;;7.97;4.22;;;;;;;;;;5066274;28;20495;-70
2022/04/14 12:45:05;;;;;;;8.45;4.05;;;;;;;;;;5064434;28;20497;-69
2022/04/14 12:47:32;;;;;;;6.45;3.65;;;;;;;;;;5051470;28;20044;-69
2022/04/14 12:49:58;;;;;;;6.70;3.90;;;;;;;;;;5065002;28;20053;-69
2022/04/14 12:52:26;;;;;;;6.85;3.67;;;;;;;;;;5064362;28;20040;-69
2022/04/14 12:54:53;;;;;;;7.85;4.30;;;;;;;;;;5067400;28;20124;-69
2022/04/14 12:57:26;;;;;;;7.40;4.05;;;;;;;;;;5065566;28;20041;-70
2022/04/14 13:00:08;;;;;;;9.15;4.38;;;;;;;;;;5066246;28;20053;-69
2022/04/14 13:02:34;;;;;;;7.70;4.45;;;;;;;;;;5065979;28;20079;-69
2022/04/14 13:05:14;;;;;;;7.05;3.78;;;;;;;;;;5064498;28;20520;-70
2022/04/14 13:07:50;;;;;;;5.63;3.05;;;;;;;;;;5067281;28;20492;-70
2022/04/14 13:10:26;;;;;;;7.75;3.08;;;;;;;;;;5050039;28;20082;-69
2022/04/14 13:12:53;;;;;;;7.38;3.55;;;;;;;;;;5086225;28;20040;-69
2022/04/14 13:15:20;;;;;;;7.43;3.47;;;;;;;;;;5065144;28;20041;-69
2022/04/14 13:17:46;;;;;;;6.22;4.05;;;;;;;;;;5067199;28;20068;-69
2022/04/14 13:20:14;;;;;;;6.80;3.55;;;;;;;;;;5067378;28;20119;-69
2022/04/14 13:22:40;;;;;;;5.85;3.72;;;;;;;;;;5068866;28;20040;-69
2022/04/14 13:25:07;;;;;;;6.35;3.50;;;;;;;;;;5063144;28;20044;-69
2022/04/14 13:27:33;;;;;;;8.80;3.95;;;;;;;;;;5060967;28;20504;-69
2022/04/14 13:30:00;;;;;;;7.43;4.20;;;;;;;;;;5064984;28;20123;-70
2022/04/14 13:32:27;;;;;;;7.53;4.30;;;;;;;;;;5062718;28;20501;-69
2022/04/14 13:34:53;;;;;;;7.78;3.50;;;;;;;;;;5062204;28;20097;-69
2022/04/14 13:37:19;;;;;;;6.57;2.92;;;;;;;;;;5082938;28;20098;-69
2022/04/14 13:39:45;;;;;;;5.88;2.88;;;;;;;;;;5065862;28;20040;-69
2022/04/14 13:42:11;;;;;;;6.75;3.72;;;;;;;;;;5061978;28;20151;-69
2022/04/14 13:44:37;;;;;;;7.20;3.35;;;;;;;;;;5065146;28;20582;-69
2022/04/14 13:47:03;;;;;;;6.70;3.50;;;;;;;;;;5058363;28;20037;-68
2022/04/14 13:49:29;;;;;;;6.13;2.90;;;;;;;;;;5062855;28;20052;-69
2022/04/14 13:51:55;;;;;;;5.75;3.10;;;;;;;;;;5063588;28;20373;-69
2022/04/14 13:54:22;;;;;;;6.75;2.70;;;;;;;;;;5062346;28;20085;-70
2022/04/14 13:56:48;;;;;;;5.35;2.72;;;;;;;;;;5064179;28;20109;-69
2022/04/14 13:59:14;;;;;;;6.70;3.55;;;;;;;;;;5066851;28;20495;-69
2022/04/14 14:01:40;;;;;;;8.43;2.58;;;;;;;;;;5063445;28;20032;-69
2022/04/14 14:04:06;;;;;;;4.95;2.40;;;;;;;;;;5060766;28;20043;-69
2022/04/14 14:06:32;;;;;;;4.78;2.45;;;;;;;;;;5057547;28;20070;-69
2022/04/14 14:08:58;;;;;;;4.10;1.92;;;;;;;;;;5061544;28;20290;-69
2022/04/14 14:11:24;;;;;;;5.55;2.80;;;;;;;;;;5081205;28;20028;-69
2022/04/14 14:13:50;;;;;;;5.10;3.20;;;;;;;;;;5058930;28;20032;-69
2022/04/14 14:16:17;;;;;;;7.75;3.70;;;;;;;;;;5055138;28;20051;-69
2022/04/14 14:18:44;;;;;;;7.60;3.70;;;;;;;;;;5064112;28;20044;-69
2022/04/14 14:21:10;;;;;;;8.40;5.13;;;;;;;;;;5061942;28;20044;-69
2022/04/14 14:23:36;;;;;;;9.73;4.07;;;;;;;;;;5057194;28;20033;-69
2022/04/14 14:26:03;;;;;;;7.45;3.70;;;;;;;;;;5063283;28;20080;-69
2022/04/14 14:28:29;;;;;;;6.90;3.42;;;;;;;;;;5059292;28;20552;-69
2022/04/14 14:30:55;;;;;;;6.38;3.50;;;;;;;;;;5066287;28;20121;-69